Latest Weather Observations for Moree

IDN60801

Issued at 4:35 am EDT Tuesday 25 November 2014 (issued every 30 minutes, with the page automatically refreshed every 10 minutes)

About weather observations | Map of weather stations | Latest weather observations for NSW | Other Formats
Station Details ID: 053115 Name: MOREE AERO Lat: -29.49 Lon: 149.85 Height: 213.0 m
Data from the previous 72 hours. | See also: Recent months at Moree
Date/Time
EDT
Temp
°C
App
Temp
°C
Dew
Point
Rel
Hum
%
Delta-T
°C
Wind Press
QNH
hPa
Press
MSL
hPa
Rain
since 9 am
mm
Dir
 
Spd
km/h
Gust
km/h
Spd
kts
Gust
kts
25/04:30am 22.3 23.7 17.8 75 2.8 SW 7 9 4 5 1012.8 - 0.0
25/04:00am 22.7 24.0 17.6 73 3.2 S 7 7 4 4 1012.5 - 0.0
25/03:30am 22.7 24.1 17.8 74 3.1 SSE 7 9 4 5 1012.2 - 0.0
25/03:00am 22.7 25.5 17.9 74 3.0 CALM 0 0 0 0 1012.4 1011.6 0.0
25/02:30am 22.6 24.2 17.8 74 3.0 S 6 7 3 4 1012.4 - 0.0
25/02:00am 23.0 24.0 17.7 72 3.3 SSW 9 9 5 5 1012.3 - 0.0
25/01:30am 23.8 24.4 17.6 68 3.9 SW 11 13 6 7 1012.7 - 0.0
25/01:00am 24.7 25.3 17.6 64 4.5 SSW 11 13 6 7 1012.9 - 0.0
25/12:30am 25.5 25.9 17.2 60 5.2 SSW 11 15 6 8 1013.1 - 0.0
25/12:00am 24.4 24.7 17.9 67 4.1 SW 13 13 7 7 1013.4 1012.5 0.0
 
Date/Time
EDT
Temp
°C
App
Temp
°C
Dew
Point
Rel
Hum
%
Delta-T
°C
Wind Press
QNH
hPa
Press
MSL
hPa
Rain
since 9 am
mm
Dir
 
Spd
km/h
Gust
km/h
Spd
kts
Gust
kts
24/11:30pm 24.9 25.2 18.0 65 4.4 SSW 13 15 7 8 1013.4 - 0.0
24/11:00pm 25.3 25.5 17.7 62 4.8 SW 13 17 7 9 1013.5 - 0.0
24/10:30pm 26.0 24.9 17.3 58 5.5 SW 19 26 10 14 1013.3 - 0.0
24/10:00pm 26.8 25.3 16.7 54 6.3 WSW 20 28 11 15 1013.3 - 0.0
24/09:30pm 27.3 26.2 16.4 51 6.8 S 17 26 9 14 1012.1 - 0.0
24/09:00pm 28.2 25.0 15.4 45 7.9 S 26 37 14 20 1011.4 1010.5 0.0
24/08:30pm 28.4 27.1 15.9 46 7.8 S 17 24 9 13 1011.1 - 0.0
24/08:00pm 29.0 27.1 15.8 44 8.2 SSW 20 30 11 16 1010.8 - 0.0
24/07:30pm 29.9 25.0 16.4 44 8.5 SW 37 48 20 26 1010.1 - 0.0
24/07:13pm 34.9 30.1 14.1 28 12.9 WSW 32 54 17 29 1010.0 - 0.0
24/07:00pm 35.7 32.8 13.0 25 13.9 NNW 20 28 11 15 1009.1 - 0.0
24/06:30pm 36.5 32.2 13.1 24 14.4 N 28 33 15 18 1008.4 - 0.0
24/06:00pm 37.1 33.8 11.6 21 15.4 N 20 28 11 15 1008.1 1007.1 0.0
24/05:30pm 37.5 34.3 11.2 20 15.8 N 19 24 10 13 1007.7 - 0.0
24/05:00pm 37.9 32.9 10.9 19 16.2 N 28 35 15 19 1008.0 - 0.0
24/04:30pm 38.4 34.1 10.9 19 16.5 N 24 33 13 18 1008.4 - 0.0
24/04:00pm 38.5 34.2 12.2 20 16.1 N 26 35 14 19 1008.6 - 0.0
24/03:30pm 38.1 34.4 12.8 22 15.6 NNW 24 37 13 20 1009.2 - 0.0
24/03:00pm 38.0 34.1 13.3 23 15.3 N 26 35 14 19 1010.0 1009.1 0.0
24/02:30pm 37.7 33.5 13.6 23 15.0 N 28 39 15 21 1010.8 - 0.0
24/02:00pm 36.7 31.7 13.9 25 14.2 N 33 44 18 24 1011.6 - 0.0
24/01:30pm 36.4 31.9 13.8 26 14.0 N 30 48 16 26 1012.1 - 0.0
24/01:24pm 36.4 31.9 13.8 26 14.0 N 30 48 16 26 1012.2 - 0.0
24/01:00pm 35.8 31.7 14.8 28 13.2 N 30 39 16 21 1012.7 - 0.0
24/12:30pm 35.6 31.3 15.4 30 12.8 N 32 41 17 22 1013.2 - 0.0
24/12:19pm 34.4 30.1 15.3 31 12.0 N 32 50 17 27 1013.4 - 0.0
24/12:00pm 33.7 29.4 15.4 33 11.5 N 32 41 17 22 1013.7 1012.8 0.0
24/11:30am 33.4 28.9 16.5 36 10.8 N 35 48 19 26 1014.1 - 0.0
24/11:00am 31.9 27.6 16.0 38 10.0 N 33 43 18 23 1014.4 - 0.0
24/10:30am 31.2 26.0 16.5 41 9.3 N 39 48 21 26 1014.6 - 0.0
24/10:00am 30.1 26.0 16.5 44 8.6 N 33 46 18 25 1014.8 - 0.0
24/09:30am 30.0 26.5 17.5 47 8.0 NNE 32 41 17 22 1015.0 - 0.0
24/09:00am 29.2 25.9 18.0 51 7.2 NNE 32 41 17 22 1015.0 1014.1 15.4
24/08:30am 28.4 25.1 17.9 53 6.7 NNE 32 37 17 20 1015.0 - 15.4
24/08:00am 27.5 24.6 17.0 52 6.6 NE 28 37 15 20 1015.0 - 15.4
24/07:30am 26.6 25.8 17.1 56 6.0 ENE 17 20 9 11 1015.0 - 15.4
24/07:00am 25.5 24.9 17.6 61 5.0 ENE 17 20 9 11 1014.7 - 15.4
24/06:30am 24.5 23.5 17.5 65 4.4 E 19 24 10 13 1014.4 - 15.4
24/06:00am 25.2 24.2 16.5 58 5.4 ESE 17 20 9 11 1014.2 1013.3 15.4
24/05:30am 24.6 24.6 17.3 64 4.6 SSE 13 15 7 8 1014.3 - 15.4
24/05:00am 24.3 23.6 17.3 65 4.4 N 17 20 9 11 1013.9 - 15.4
24/04:30am 25.6 24.8 16.0 55 5.9 NE 15 26 8 14 1013.4 - 15.4
24/04:00am 25.6 25.2 16.2 56 5.8 NE 13 15 7 8 1012.9 - 15.4
24/03:30am 25.0 22.7 16.6 59 5.2 ENE 24 32 13 17 1012.9 - 15.4
24/03:00am 25.3 20.9 16.6 58 5.4 E 35 48 19 26 1012.5 1011.7 15.4
24/02:52am 25.8 21.6 16.3 55 5.9 E 33 48 18 26 1012.9 - 15.4
24/02:30am 26.2 23.9 16.6 55 6.0 SSE 24 28 13 15 1013.5 - 15.4
24/02:00am 25.6 22.3 17.9 62 4.9 E 32 37 17 20 1013.8 - 15.4
24/01:30am 23.9 23.2 18.7 72 3.3 ESE 20 26 11 14 1014.7 - 15.2
24/01:29am 23.7 23.2 19.0 75 3.0 ESE 20 26 11 14 1014.7 - 15.2
24/01:16am 24.0 25.3 19.3 75 3.0 NE 11 19 6 10 1014.9 - 15.2
24/01:00am 24.4 23.2 17.4 65 4.4 NNW 20 30 11 16 1016.3 - 14.2
24/12:30am 24.2 24.5 17.1 64 4.4 NW 11 17 6 9 1016.3 - 14.0
24/12:29am 23.8 24.6 18.1 70 3.6 NW 11 17 6 9 1016.3 - 14.0
24/12:01am 26.5 22.3 14.6 48 7.2 WNW 30 50 16 27 1016.6 - 10.8
24/12:00am 26.2 21.4 14.6 48 7.0 WNW 33 50 18 27 1016.8 1016.0 10.4
 
Date/Time
EDT
Temp
°C
App
Temp
°C
Dew
Point
Rel
Hum
%
Delta-T
°C
Wind Press
QNH
hPa
Press
MSL
hPa
Rain
since 9 am
mm
Dir
 
Spd
km/h
Gust
km/h
Spd
kts
Gust
kts
23/11:59pm 24.2 18.8 17.0 64 4.5 WNW 41 50 22 27 1016.8 - 9.6
23/11:57pm 24.0 20.4 17.3 66 4.2 W 32 46 17 25 1016.4 - 9.4
23/11:30pm 28.4 27.2 15.0 44 8.2 ENE 15 26 8 14 1015.2 - 0.6
23/11:00pm 29.7 25.2 11.5 32 10.6 E 26 35 14 19 1014.7 - 0.0
23/10:30pm 30.3 24.4 11.0 30 11.2 E 33 43 18 23 1013.6 - 0.0
23/10:09pm 31.1 25.2 10.5 28 11.9 NE 32 50 17 27 1013.4 - 0.0
23/10:00pm 30.8 24.5 11.1 29 11.5 NE 35 44 19 24 1013.5 - 0.0
23/09:30pm 30.8 24.2 11.3 30 11.4 NE 37 57 20 31 1013.3 - 0.0
23/09:22pm 30.8 23.8 11.1 29 11.5 ENE 39 57 21 31 1013.3 - 0.0
23/09:00pm 30.2 22.2 12.3 33 10.6 E 46 57 25 31 1013.4 1012.5 0.0
23/08:30pm 32.0 24.8 13.1 31 11.4 E 43 56 23 30 1013.4 - 0.0
23/08:03pm 33.0 26.1 12.8 29 12.2 E 41 59 22 32 1012.1 - 0.0
23/08:00pm 33.1 25.8 12.7 29 12.3 E 43 59 23 32 1012.0 - 0.0
23/07:57pm 33.5 26.1 12.6 28 12.6 E 43 57 23 31 1011.9 - 0.0
23/07:34pm 35.2 27.2 12.4 25 13.8 NE 46 56 25 30 1010.8 - 0.0
23/07:30pm 38.3 36.1 9.3 17 17.0 N 11 15 6 8 1010.1 - 0.0
23/07:00pm 39.3 36.2 8.9 16 17.8 N 15 22 8 12 1009.6 - 0.0
23/06:30pm 39.7 36.4 9.7 16 17.8 NNE 17 22 9 12 1009.0 - 0.0
23/06:00pm 39.7 36.2 10.8 17 17.4 N 20 28 11 15 1008.5 1007.6 0.0
23/05:30pm 40.3 36.5 9.7 16 18.2 N 20 28 11 15 1008.3 - 0.0
23/05:00pm 41.1 38.4 8.9 14 19.0 N 13 19 7 10 1008.7 - 0.0
23/04:30pm 41.8 39.2 9.4 14 19.3 N 13 22 7 12 1009.0 - 0.0
23/04:00pm 41.8 38.8 9.1 14 19.4 N 15 26 8 14 1009.6 - 0.0
23/03:30pm 41.2 37.6 9.7 15 18.8 NNW 19 32 10 17 1009.9 - 0.0
23/03:00pm 42.1 39.5 9.4 14 19.5 NW 13 28 7 15 1010.3 1009.4 0.0
23/02:30pm 41.2 39.2 8.7 14 19.1 NNE 9 24 5 13 1011.0 - 0.0
23/02:00pm 41.3 38.2 12.1 17 18.0 N 20 28 11 15 1011.4 - 0.0
23/01:30pm 40.4 38.1 14.6 22 16.4 N 20 35 11 19 1011.9 - 0.0
23/01:00pm 39.7 35.6 14.9 23 15.8 N 30 35 16 19 1012.7 - 0.0
23/12:30pm 39.8 36.7 15.5 24 15.6 NNW 26 41 14 22 1013.2 - 0.0
23/12:00pm 39.1 36.8 15.8 25 15.0 N 22 33 12 18 1013.6 1012.7 0.0
23/11:30am 37.3 33.9 15.9 28 13.7 N 28 41 15 22 1013.8 - 0.0
23/11:00am 37.0 34.3 16.5 29 13.2 N 26 33 14 18 1013.9 - 0.0
23/10:30am 36.4 32.8 17.2 32 12.5 N 32 39 17 21 1014.1 - 0.0
23/10:09am 35.4 33.0 18.2 36 11.3 N 28 48 15 26 1014.3 - 0.0
23/10:00am 35.6 33.2 18.3 36 11.4 N 28 37 15 20 1014.4 - 0.0
23/09:30am 34.1 31.5 18.6 40 10.2 N 30 48 16 26 1014.3 - 0.0
23/09:28am 34.0 31.3 18.5 40 10.2 N 30 48 16 26 1014.3 - 0.0
23/09:00am 33.2 30.3 18.9 42 9.4 NNE 32 41 17 22 1014.4 1013.5 0.0
23/08:30am 32.0 28.9 18.9 45 8.6 N 33 44 18 24 1014.1 - 0.0
23/08:00am 31.0 28.0 18.6 47 8.1 NNE 32 41 17 22 1013.8 - 0.0
23/07:30am 29.9 26.7 18.1 49 7.6 NNE 32 41 17 22 1013.5 - 0.0
23/07:00am 29.9 26.8 17.6 47 7.9 NNE 30 39 16 21 1012.9 - 0.0
23/06:30am 29.5 26.2 16.9 46 8.0 NNE 30 37 16 20 1012.3 - 0.0
23/06:00am 29.2 26.1 16.5 46 8.0 NNE 28 37 15 20 1011.8 1010.9 0.0
23/05:30am 29.4 25.7 16.0 44 8.4 NNE 30 35 16 19 1011.3 - 0.0
23/05:00am 29.7 25.8 15.5 42 8.8 NNE 30 35 16 19 1010.9 - 0.0
23/04:30am 30.1 26.3 14.8 39 9.4 NNE 28 35 15 19 1010.6 - 0.0
23/04:00am 30.3 26.4 14.3 37 9.8 NNE 28 37 15 20 1010.4 - 0.0
23/03:30am 30.2 26.4 13.5 36 10.1 NNE 26 32 14 17 1010.4 - 0.0
23/03:00am 30.1 27.1 12.4 33 10.5 NNE 20 30 11 16 1010.3 1009.4 0.0
23/02:30am 29.1 26.4 10.4 31 10.7 NE 15 17 8 9 1010.4 - 0.0
23/02:00am 27.5 23.6 7.0 27 11.0 NE 17 24 9 13 1010.5 - 0.0
23/01:30am 26.3 23.8 4.6 24 11.1 E 7 15 4 8 1010.8 - 0.0
23/01:00am 26.7 24.4 4.7 24 11.3 E 6 11 3 6 1010.6 - 0.0
23/12:30am 29.7 28.6 4.9 20 13.0 CALM 0 0 0 0 1010.9 - 0.0
23/12:00am 29.3 26.3 1.9 17 13.6 ESE 7 11 4 6 1011.0 1010.1 0.0
 
Date/Time
EDT
Temp
°C
App
Temp
°C
Dew
Point
Rel
Hum
%
Delta-T
°C
Wind Press
QNH
hPa
Press
MSL
hPa
Rain
since 9 am
mm
Dir
 
Spd
km/h
Gust
km/h
Spd
kts
Gust
kts
22/11:30pm 29.1 27.1 2.3 18 13.4 SW 2 13 1 7 1011.1 - 0.0
22/11:00pm 29.5 28.0 3.1 18 13.4 CALM 0 0 0 0 1011.1 - 0.0
22/10:30pm 29.9 28.8 6.8 23 12.5 WSW 2 11 1 6 1011.0 - 0.0
22/10:00pm 31.9 30.6 4.0 17 14.6 CALM 0 0 0 0 1010.7 - 0.0
22/09:30pm 31.3 29.9 3.4 17 14.4 CALM 0 0 0 0 1010.4 - 0.0
22/09:00pm 33.1 31.7 3.7 15 15.4 CALM 0 0 0 0 1009.8 1008.9 0.0
22/08:30pm 34.2 33.4 6.7 18 15.2 CALM 0 0 0 0 1009.5 - 0.0
22/08:00pm 36.6 34.6 2.5 12 17.9 WSW 2 7 1 4 1009.1 - 0.0
22/07:30pm 38.6 37.1 3.1 11 19.0 CALM 0 0 0 0 1008.8 - 0.0
22/07:00pm 40.3 38.5 3.5 10 20.0 WSW 2 11 1 6 1008.4 - 0.0
22/06:30pm 40.8 38.1 2.8 9 20.4 W 6 15 3 8 1008.1 - 0.0
22/06:00pm 40.9 38.3 4.3 10 20.2 W 7 20 4 11 1007.9 1006.9 0.0
22/05:30pm 41.2 39.6 4.6 11 20.3 WNW 2 15 1 8 1007.9 - 0.0
22/05:00pm 40.9 38.8 1.7 9 20.8 SW 2 11 1 6 1007.9 - 0.0
22/04:30pm 41.8 39.1 3.8 10 20.9 WSW 7 19 4 10 1008.1 - 0.0
22/04:00pm 41.2 39.2 4.6 11 20.3 WSW 4 15 2 8 1008.4 - 0.0
22/03:30pm 41.0 36.9 2.4 9 20.7 NW 13 28 7 15 1008.7 - 0.0
22/03:00pm 40.2 38.9 6.2 12 19.2 NNW 2 11 1 6 1009.2 1008.3 0.0
22/02:30pm 40.0 35.1 5.0 12 19.4 NNW 20 33 11 18 1009.7 - 0.0
22/02:00pm 40.1 35.7 7.4 14 18.8 N 20 33 11 18 1010.0 - 0.0
22/01:58pm 40.0 34.2 7.8 14 18.6 N 28 33 15 18 1010.1 - 0.0
22/01:30pm 39.4 38.2 6.5 13 18.6 N 2 9 1 5 1010.4 - 0.0
22/01:00pm 38.9 34.7 7.4 14 18.0 NNW 19 32 10 17 1010.9 - 0.0
22/12:30pm 39.0 36.0 7.6 15 18.0 NW 13 28 7 15 1011.4 - 0.0
22/12:00pm 38.3 34.8 7.4 15 17.6 N 15 26 8 14 1011.8 1010.9 0.0
22/11:30am 37.5 33.7 12.5 22 15.3 NNE 24 33 13 18 1012.1 - 0.0
22/11:00am 36.3 33.8 14.2 26 13.8 N 20 26 11 14 1012.4 - 0.0
22/10:30am 35.4 32.3 14.4 28 13.1 N 24 32 13 17 1012.7 - 0.0
22/10:00am 33.7 31.0 15.6 33 11.4 NNE 24 32 13 17 1012.8 - 0.0
22/09:30am 32.5 30.7 16.0 37 10.4 N 20 33 11 18 1012.9 - 0.0
22/09:00am 31.7 29.0 16.6 40 9.6 NNE 26 35 14 19 1012.9 1012.0 0.0
22/08:30am 30.0 27.3 16.7 44 8.4 N 26 33 14 18 1012.8 - 0.0
22/08:00am 28.9 25.9 16.9 48 7.6 NE 28 33 15 18 1012.5 - 0.0
22/07:30am 27.3 24.4 17.0 53 6.5 NE 28 33 15 18 1012.3 - 0.0
22/07:00am 26.1 24.5 16.6 55 5.9 NE 20 28 11 15 1011.9 - 0.0
22/06:30am 24.9 24.5 16.1 58 5.4 ENE 13 17 7 9 1011.4 - 0.0
22/06:00am 23.6 22.5 15.2 59 5.1 ENE 15 19 8 10 1011.0 1010.1 0.0
22/05:30am 24.0 22.7 14.7 56 5.6 NE 15 19 8 10 1010.5 - 0.0
22/05:00am 24.5 22.7 14.5 53 6.0 NE 17 19 9 10 1010.2 - 0.0

Other Formats:

Comma delimited format used in spreadsheet applications
http://www.bom.gov.au/fwo/IDN60801/IDN60801.95527.axf

JavaScript Object Notation format (JSON) in row-major order
http://www.bom.gov.au/fwo/IDN60801/IDN60801.95527.json